sensor_id;sensor_type;location;lat;lon;timestamp;P1;durP1;ratioP1;P2;durP2;ratioP2
76196;SDS011;64974;53.144;17.962;2022-11-24T00:00:26;58.05;;;19.77;;
76196;SDS011;64974;53.144;17.962;2022-11-24T00:02:52;54.50;;;19.77;;
76196;SDS011;64974;53.144;17.962;2022-11-24T00:05:17;56.03;;;20.52;;
76196;SDS011;64974;53.144;17.962;2022-11-24T00:07:43;45.97;;;18.52;;
76196;SDS011;64974;53.144;17.962;2022-11-24T00:10:09;51.58;;;18.65;;
76196;SDS011;64974;53.144;17.962;2022-11-24T00:12:34;49.55;;;18.10;;
76196;SDS011;64974;53.144;17.962;2022-11-24T00:15:00;50.25;;;18.55;;
76196;SDS011;64974;53.144;17.962;2022-11-24T00:17:25;49.80;;;18.45;;
76196;SDS011;64974;53.144;17.962;2022-11-24T00:19:53;57.35;;;21.17;;
76196;SDS011;64974;53.144;17.962;2022-11-24T00:22:18;55.78;;;19.77;;
76196;SDS011;64974;53.144;17.962;2022-11-24T00:24:44;53.90;;;17.30;;
76196;SDS011;64974;53.144;17.962;2022-11-24T00:27:09;50.10;;;18.83;;
76196;SDS011;64974;53.144;17.962;2022-11-24T00:29:35;48.72;;;18.17;;
76196;SDS011;64974;53.144;17.962;2022-11-24T00:32:00;50.05;;;18.63;;
76196;SDS011;64974;53.144;17.962;2022-11-24T00:34:30;49.22;;;17.88;;
76196;SDS011;64974;53.144;17.962;2022-11-24T00:36:56;46.70;;;16.90;;
76196;SDS011;64974;53.144;17.962;2022-11-24T00:39:21;56.40;;;19.02;;
76196;SDS011;64974;53.144;17.962;2022-11-24T00:41:46;55.42;;;21.63;;
76196;SDS011;64974;53.144;17.962;2022-11-24T00:44:12;55.83;;;20.58;;
76196;SDS011;64974;53.144;17.962;2022-11-24T00:46:37;52.85;;;18.35;;
76196;SDS011;64974;53.144;17.962;2022-11-24T00:49:03;50.13;;;17.13;;
76196;SDS011;64974;53.144;17.962;2022-11-24T00:51:28;63.67;;;18.55;;
76196;SDS011;64974;53.144;17.962;2022-11-24T00:53:55;55.22;;;17.40;;
76196;SDS011;64974;53.144;17.962;2022-11-24T00:56:21;49.03;;;17.67;;
76196;SDS011;64974;53.144;17.962;2022-11-24T00:58:47;46.65;;;17.77;;
76196;SDS011;64974;53.144;17.962;2022-11-24T01:01:14;53.55;;;18.63;;
76196;SDS011;64974;53.144;17.962;2022-11-24T01:03:41;58.38;;;20.30;;
76196;SDS011;64974;53.144;17.962;2022-11-24T01:06:11;52.03;;;18.73;;
76196;SDS011;64974;53.144;17.962;2022-11-24T01:08:39;54.25;;;19.02;;
76196;SDS011;64974;53.144;17.962;2022-11-24T01:11:08;51.60;;;19.17;;
76196;SDS011;64974;53.144;17.962;2022-11-24T01:13:51;60.83;;;22.33;;
76196;SDS011;64974;53.144;17.962;2022-11-24T01:16:21;54.95;;;22.30;;
76196;SDS011;64974;53.144;17.962;2022-11-24T01:18:49;57.92;;;20.90;;
76196;SDS011;64974;53.144;17.962;2022-11-24T01:21:15;58.70;;;21.80;;
76196;SDS011;64974;53.144;17.962;2022-11-24T01:23:41;51.75;;;18.38;;
76196;SDS011;64974;53.144;17.962;2022-11-24T01:26:08;49.58;;;17.92;;
76196;SDS011;64974;53.144;17.962;2022-11-24T01:28:35;54.60;;;17.85;;
76196;SDS011;64974;53.144;17.962;2022-11-24T01:31:02;65.50;;;20.77;;
76196;SDS011;64974;53.144;17.962;2022-11-24T01:33:29;60.63;;;18.65;;
76196;SDS011;64974;53.144;17.962;2022-11-24T01:35:55;56.92;;;20.60;;
76196;SDS011;64974;53.144;17.962;2022-11-24T01:38:21;56.47;;;22.10;;
76196;SDS011;64974;53.144;17.962;2022-11-24T01:40:47;55.55;;;21.00;;
76196;SDS011;64974;53.144;17.962;2022-11-24T01:43:16;54.97;;;19.95;;
76196;SDS011;64974;53.144;17.962;2022-11-24T01:45:43;50.85;;;18.02;;
76196;SDS011;64974;53.144;17.962;2022-11-24T01:48:19;61.08;;;20.52;;
76196;SDS011;64974;53.144;17.962;2022-11-24T01:50:51;59.35;;;19.98;;
76196;SDS011;64974;53.144;17.962;2022-11-24T01:53:19;49.92;;;18.33;;
76196;SDS011;64974;53.144;17.962;2022-11-24T01:55:46;54.45;;;18.52;;
76196;SDS011;64974;53.144;17.962;2022-11-24T01:58:13;59.38;;;19.55;;
76196;SDS011;64974;53.144;17.962;2022-11-24T05:28:53;47.42;;;16.98;;
76196;SDS011;64974;53.144;17.962;2022-11-24T05:31:18;49.60;;;17.73;;
76196;SDS011;64974;53.144;17.962;2022-11-24T05:33:44;52.97;;;16.30;;
76196;SDS011;64974;53.144;17.962;2022-11-24T05:36:10;51.85;;;17.73;;
76196;SDS011;64974;53.144;17.962;2022-11-24T05:38:58;55.83;;;18.45;;
76196;SDS011;64974;53.144;17.962;2022-11-24T05:41:24;50.90;;;17.55;;
76196;SDS011;64974;53.144;17.962;2022-11-24T05:43:49;51.97;;;17.17;;
76196;SDS011;64974;53.144;17.962;2022-11-24T05:46:15;51.35;;;17.27;;
76196;SDS011;64974;53.144;17.962;2022-11-24T05:48:40;50.80;;;19.30;;
76196;SDS011;64974;53.144;17.962;2022-11-24T05:51:06;46.03;;;16.20;;
76196;SDS011;64974;53.144;17.962;2022-11-24T05:53:31;56.35;;;17.60;;
76196;SDS011;64974;53.144;17.962;2022-11-24T05:55:56;50.97;;;17.00;;
76196;SDS011;64974;53.144;17.962;2022-11-24T05:58:22;56.67;;;17.23;;
76196;SDS011;64974;53.144;17.962;2022-11-24T06:00:47;61.03;;;17.00;;
76196;SDS011;64974;53.144;17.962;2022-11-24T06:03:12;54.05;;;20.50;;
76196;SDS011;64974;53.144;17.962;2022-11-24T06:05:38;54.85;;;16.83;;
76196;SDS011;64974;53.144;17.962;2022-11-24T06:08:03;54.90;;;17.70;;
76196;SDS011;64974;53.144;17.962;2022-11-24T06:10:29;45.05;;;17.15;;
76196;SDS011;64974;53.144;17.962;2022-11-24T06:15:21;48.77;;;13.63;;
76196;SDS011;64974;53.144;17.962;2022-11-24T06:17:53;56.90;;;19.35;;
76196;SDS011;64974;53.144;17.962;2022-11-24T06:20:19;52.08;;;17.33;;
76196;SDS011;64974;53.144;17.962;2022-11-24T06:22:45;51.55;;;15.82;;
76196;SDS011;64974;53.144;17.962;2022-11-24T06:25:10;43.75;;;15.82;;
76196;SDS011;64974;53.144;17.962;2022-11-24T06:27:35;47.07;;;14.83;;
76196;SDS011;64974;53.144;17.962;2022-11-24T06:30:01;52.20;;;16.70;;
76196;SDS011;64974;53.144;17.962;2022-11-24T06:32:26;52.45;;;16.45;;
76196;SDS011;64974;53.144;17.962;2022-11-24T06:34:51;51.20;;;15.15;;
76196;SDS011;64974;53.144;17.962;2022-11-24T06:37:17;41.20;;;12.68;;
76196;SDS011;64974;53.144;17.962;2022-11-24T06:39:42;55.75;;;15.93;;
76196;SDS011;64974;53.144;17.962;2022-11-24T06:42:07;47.47;;;14.93;;
76196;SDS011;64974;53.144;17.962;2022-11-24T06:44:33;46.05;;;14.57;;
76196;SDS011;64974;53.144;17.962;2022-11-24T06:46:58;42.23;;;14.67;;
76196;SDS011;64974;53.144;17.962;2022-11-24T06:49:23;54.75;;;15.68;;
76196;SDS011;64974;53.144;17.962;2022-11-24T06:51:49;47.38;;;14.10;;
76196;SDS011;64974;53.144;17.962;2022-11-24T06:54:15;42.13;;;15.10;;
76196;SDS011;64974;53.144;17.962;2022-11-24T06:56:41;51.03;;;16.58;;
76196;SDS011;64974;53.144;17.962;2022-11-24T06:59:12;46.72;;;17.10;;
76196;SDS011;64974;53.144;17.962;2022-11-24T07:01:40;55.95;;;16.23;;
76196;SDS011;64974;53.144;17.962;2022-11-24T07:04:05;58.17;;;17.55;;
76196;SDS011;64974;53.144;17.962;2022-11-24T07:06:31;61.73;;;17.57;;
76196;SDS011;64974;53.144;17.962;2022-11-24T07:08:56;49.97;;;16.50;;
76196;SDS011;64974;53.144;17.962;2022-11-24T07:11:22;57.47;;;16.88;;
76196;SDS011;64974;53.144;17.962;2022-11-24T07:13:48;49.15;;;15.75;;
76196;SDS011;64974;53.144;17.962;2022-11-24T07:18:41;53.30;;;14.88;;
76196;SDS011;64974;53.144;17.962;2022-11-24T07:21:07;47.60;;;16.13;;
76196;SDS011;64974;53.144;17.962;2022-11-24T07:23:33;51.63;;;17.65;;
76196;SDS011;64974;53.144;17.962;2022-11-24T07:26:00;48.28;;;16.45;;
76196;SDS011;64974;53.144;17.962;2022-11-24T07:28:26;47.72;;;16.58;;
76196;SDS011;64974;53.144;17.962;2022-11-24T07:30:51;47.77;;;16.07;;
76196;SDS011;64974;53.144;17.962;2022-11-24T07:33:16;50.58;;;15.80;;
76196;SDS011;64974;53.144;17.962;2022-11-24T07:35:45;47.10;;;15.07;;
76196;SDS011;64974;53.144;17.962;2022-11-24T07:38:10;57.78;;;15.63;;
76196;SDS011;64974;53.144;17.962;2022-11-24T07:40:36;61.25;;;16.42;;
76196;SDS011;64974;53.144;17.962;2022-11-24T07:43:02;58.13;;;15.40;;
76196;SDS011;64974;53.144;17.962;2022-11-24T07:45:27;51.85;;;16.35;;
76196;SDS011;64974;53.144;17.962;2022-11-24T07:47:52;50.88;;;16.92;;
76196;SDS011;64974;53.144;17.962;2022-11-24T07:50:18;52.67;;;16.17;;
76196;SDS011;64974;53.144;17.962;2022-11-24T07:52:43;63.40;;;19.73;;
76196;SDS011;64974;53.144;17.962;2022-11-24T07:55:08;61.35;;;18.38;;
76196;SDS011;64974;53.144;17.962;2022-11-24T07:57:34;66.80;;;20.23;;
76196;SDS011;64974;53.144;17.962;2022-11-24T08:00:00;55.15;;;16.95;;
76196;SDS011;64974;53.144;17.962;2022-11-24T08:02:25;64.90;;;18.25;;
76196;SDS011;64974;53.144;17.962;2022-11-24T08:04:51;60.60;;;17.13;;
76196;SDS011;64974;53.144;17.962;2022-11-24T08:07:16;64.53;;;18.43;;
76196;SDS011;64974;53.144;17.962;2022-11-24T08:09:41;59.17;;;18.45;;
76196;SDS011;64974;53.144;17.962;2022-11-24T08:12:07;66.67;;;18.20;;
76196;SDS011;64974;53.144;17.962;2022-11-24T08:14:32;59.47;;;18.97;;
76196;SDS011;64974;53.144;17.962;2022-11-24T08:16:57;60.33;;;19.03;;
76196;SDS011;64974;53.144;17.962;2022-11-24T08:19:23;68.88;;;19.15;;
76196;SDS011;64974;53.144;17.962;2022-11-24T08:21:48;61.67;;;17.00;;
76196;SDS011;64974;53.144;17.962;2022-11-24T08:24:13;60.92;;;19.15;;
76196;SDS011;64974;53.144;17.962;2022-11-24T08:26:40;57.83;;;17.25;;
76196;SDS011;64974;53.144;17.962;2022-11-24T08:29:06;61.78;;;19.48;;
76196;SDS011;64974;53.144;17.962;2022-11-24T08:31:31;70.75;;;21.48;;
76196;SDS011;64974;53.144;17.962;2022-11-24T08:33:57;65.43;;;19.83;;
76196;SDS011;64974;53.144;17.962;2022-11-24T08:36:23;62.83;;;20.05;;
76196;SDS011;64974;53.144;17.962;2022-11-24T08:38:52;70.95;;;21.13;;
76196;SDS011;64974;53.144;17.962;2022-11-24T08:41:19;63.20;;;19.73;;
76196;SDS011;64974;53.144;17.962;2022-11-24T08:43:44;65.38;;;19.48;;
76196;SDS011;64974;53.144;17.962;2022-11-24T08:46:10;64.50;;;19.38;;
76196;SDS011;64974;53.144;17.962;2022-11-24T08:48:37;60.05;;;22.45;;
76196;SDS011;64974;53.144;17.962;2022-11-24T08:51:07;69.57;;;20.88;;
76196;SDS011;64974;53.144;17.962;2022-11-24T08:53:34;67.32;;;19.80;;
76196;SDS011;64974;53.144;17.962;2022-11-24T08:55:59;86.57;;;24.00;;
76196;SDS011;64974;53.144;17.962;2022-11-24T08:58:25;84.38;;;24.70;;
76196;SDS011;64974;53.144;17.962;2022-11-24T09:00:50;71.22;;;22.58;;
76196;SDS011;64974;53.144;17.962;2022-11-24T09:03:16;79.40;;;22.83;;
76196;SDS011;64974;53.144;17.962;2022-11-24T09:05:41;75.20;;;23.13;;
76196;SDS011;64974;53.144;17.962;2022-11-24T09:08:06;69.28;;;23.17;;
76196;SDS011;64974;53.144;17.962;2022-11-24T09:10:32;74.40;;;23.05;;
76196;SDS011;64974;53.144;17.962;2022-11-24T09:12:57;79.23;;;22.73;;
76196;SDS011;64974;53.144;17.962;2022-11-24T09:15:22;69.47;;;23.70;;
76196;SDS011;64974;53.144;17.962;2022-11-24T09:17:48;72.37;;;22.97;;
76196;SDS011;64974;53.144;17.962;2022-11-24T09:20:13;63.40;;;21.63;;
76196;SDS011;64974;53.144;17.962;2022-11-24T09:22:39;66.68;;;19.20;;
76196;SDS011;64974;53.144;17.962;2022-11-24T09:27:31;63.00;;;18.77;;
76196;SDS011;64974;53.144;17.962;2022-11-24T09:29:57;74.90;;;24.23;;
76196;SDS011;64974;53.144;17.962;2022-11-24T09:32:22;65.47;;;22.73;;
76196;SDS011;64974;53.144;17.962;2022-11-24T09:34:50;62.53;;;23.63;;
76196;SDS011;64974;53.144;17.962;2022-11-24T09:37:16;70.53;;;20.48;;
76196;SDS011;64974;53.144;17.962;2022-11-24T09:39:42;64.65;;;21.25;;
76196;SDS011;64974;53.144;17.962;2022-11-24T09:42:51;70.97;;;21.63;;
76196;SDS011;64974;53.144;17.962;2022-11-24T09:45:16;67.65;;;23.42;;
76196;SDS011;64974;53.144;17.962;2022-11-24T09:50:35;79.97;;;23.90;;
76196;SDS011;64974;53.144;17.962;2022-11-24T09:55:36;71.05;;;20.70;;
76196;SDS011;64974;53.144;17.962;2022-11-24T10:00:52;65.13;;;19.50;;
76196;SDS011;64974;53.144;17.962;2022-11-24T10:03:21;60.88;;;21.00;;
76196;SDS011;64974;53.144;17.962;2022-11-24T10:05:51;72.43;;;21.15;;
76196;SDS011;64974;53.144;17.962;2022-11-24T10:08:30;84.30;;;26.10;;
76196;SDS011;64974;53.144;17.962;2022-11-24T10:11:00;79.25;;;24.77;;
76196;SDS011;64974;53.144;17.962;2022-11-24T10:13:47;73.40;;;22.52;;
76196;SDS011;64974;53.144;17.962;2022-11-24T10:16:31;66.03;;;22.45;;
76196;SDS011;64974;53.144;17.962;2022-11-24T10:19:15;70.50;;;23.95;;
76196;SDS011;64974;53.144;17.962;2022-11-24T10:21:50;70.30;;;23.30;;
76196;SDS011;64974;53.144;17.962;2022-11-24T10:30:21;60.00;;;19.10;;
76196;SDS011;64974;53.144;17.962;2022-11-24T10:32:48;58.97;;;19.50;;
76196;SDS011;64974;53.144;17.962;2022-11-24T10:35:46;62.72;;;19.15;;
76196;SDS011;64974;53.144;17.962;2022-11-24T10:38:33;70.90;;;19.80;;
76196;SDS011;64974;53.144;17.962;2022-11-24T10:43:26;70.73;;;20.37;;
76196;SDS011;64974;53.144;17.962;2022-11-24T10:45:53;96.38;;;27.15;;
76196;SDS011;64974;53.144;17.962;2022-11-24T10:48:26;76.93;;;24.45;;
76196;SDS011;64974;53.144;17.962;2022-11-24T10:50:55;72.70;;;22.25;;
76196;SDS011;64974;53.144;17.962;2022-11-24T10:53:25;63.72;;;19.50;;
76196;SDS011;64974;53.144;17.962;2022-11-24T10:58:22;66.53;;;20.33;;
76196;SDS011;64974;53.144;17.962;2022-11-24T11:01:17;69.88;;;22.23;;
76196;SDS011;64974;53.144;17.962;2022-11-24T11:03:48;77.53;;;22.00;;
76196;SDS011;64974;53.144;17.962;2022-11-24T11:06:22;76.18;;;22.95;;
76196;SDS011;64974;53.144;17.962;2022-11-24T11:11:32;67.97;;;20.40;;
76196;SDS011;64974;53.144;17.962;2022-11-24T11:14:02;73.43;;;23.02;;
76196;SDS011;64974;53.144;17.962;2022-11-24T11:16:38;62.50;;;20.52;;
76196;SDS011;64974;53.144;17.962;2022-11-24T11:21:57;68.43;;;21.55;;
76196;SDS011;64974;53.144;17.962;2022-11-24T11:24:45;73.65;;;21.65;;
76196;SDS011;64974;53.144;17.962;2022-11-24T11:27:21;73.05;;;21.92;;
76196;SDS011;64974;53.144;17.962;2022-11-24T11:29:48;71.15;;;21.20;;
76196;SDS011;64974;53.144;17.962;2022-11-24T11:32:15;71.05;;;23.95;;
76196;SDS011;64974;53.144;17.962;2022-11-24T11:34:49;79.13;;;23.23;;
76196;SDS011;64974;53.144;17.962;2022-11-24T11:37:15;75.43;;;24.95;;
76196;SDS011;64974;53.144;17.962;2022-11-24T11:44:47;71.13;;;23.02;;
76196;SDS011;64974;53.144;17.962;2022-11-24T11:47:23;56.92;;;19.85;;
76196;SDS011;64974;53.144;17.962;2022-11-24T11:49:51;69.40;;;19.52;;
76196;SDS011;64974;53.144;17.962;2022-11-24T11:57:52;70.80;;;19.65;;
76196;SDS011;64974;53.144;17.962;2022-11-24T12:00:27;62.38;;;21.40;;
76196;SDS011;64974;53.144;17.962;2022-11-24T12:02:57;71.32;;;20.90;;
76196;SDS011;64974;53.144;17.962;2022-11-24T12:08:37;67.55;;;21.15;;
76196;SDS011;64974;53.144;17.962;2022-11-24T12:11:06;63.33;;;23.17;;
76196;SDS011;64974;53.144;17.962;2022-11-24T12:28:05;83.45;;;25.23;;
76196;SDS011;64974;53.144;17.962;2022-11-24T12:30:41;68.82;;;22.90;;
76196;SDS011;64974;53.144;17.962;2022-11-24T12:39:22;79.38;;;25.08;;
76196;SDS011;64974;53.144;17.962;2022-11-24T12:41:54;81.45;;;25.98;;
76196;SDS011;64974;53.144;17.962;2022-11-24T12:44:34;78.80;;;24.25;;
76196;SDS011;64974;53.144;17.962;2022-11-24T12:49:38;74.68;;;24.52;;
76196;SDS011;64974;53.144;17.962;2022-11-24T12:52:20;69.20;;;23.55;;
76196;SDS011;64974;53.144;17.962;2022-11-24T12:54:51;59.40;;;19.75;;
76196;SDS011;64974;53.144;17.962;2022-11-24T12:57:23;71.18;;;26.05;;
76196;SDS011;64974;53.144;17.962;2022-11-24T13:08:02;76.85;;;23.10;;
76196;SDS011;64974;53.144;17.962;2022-11-24T13:10:30;68.75;;;20.20;;
76196;SDS011;64974;53.144;17.962;2022-11-24T13:15:30;54.85;;;18.50;;
76196;SDS011;64974;53.144;17.962;2022-11-24T13:17:56;63.38;;;21.13;;
76196;SDS011;64974;53.144;17.962;2022-11-24T13:20:32;69.85;;;22.55;;
76196;SDS011;64974;53.144;17.962;2022-11-24T13:23:01;67.63;;;21.52;;
76196;SDS011;64974;53.144;17.962;2022-11-24T13:25:28;69.00;;;22.35;;
76196;SDS011;64974;53.144;17.962;2022-11-24T13:27:55;69.53;;;21.13;;
76196;SDS011;64974;53.144;17.962;2022-11-24T13:35:39;57.90;;;18.52;;
76196;SDS011;64974;53.144;17.962;2022-11-24T13:47:27;60.38;;;19.88;;
76196;SDS011;64974;53.144;17.962;2022-11-24T13:50:05;53.13;;;17.02;;
76196;SDS011;64974;53.144;17.962;2022-11-24T13:55:38;61.80;;;20.13;;
76196;SDS011;64974;53.144;17.962;2022-11-24T14:00:59;63.67;;;21.27;;
76196;SDS011;64974;53.144;17.962;2022-11-24T14:06:33;60.33;;;18.75;;
76196;SDS011;64974;53.144;17.962;2022-11-24T14:14:28;62.58;;;18.42;;
76196;SDS011;64974;53.144;17.962;2022-11-24T14:19:37;52.50;;;16.30;;
76196;SDS011;64974;53.144;17.962;2022-11-24T14:22:02;59.75;;;18.42;;
76196;SDS011;64974;53.144;17.962;2022-11-24T14:24:31;63.63;;;19.77;;
76196;SDS011;64974;53.144;17.962;2022-11-24T14:26:59;68.55;;;21.50;;
76196;SDS011;64974;53.144;17.962;2022-11-24T14:29:25;67.38;;;20.45;;
76196;SDS011;64974;53.144;17.962;2022-11-24T14:31:57;69.28;;;21.23;;
76196;SDS011;64974;53.144;17.962;2022-11-24T14:34:26;63.67;;;22.50;;
76196;SDS011;64974;53.144;17.962;2022-11-24T14:36:53;71.20;;;21.77;;
76196;SDS011;64974;53.144;17.962;2022-11-24T14:39:20;60.75;;;20.70;;
76196;SDS011;64974;53.144;17.962;2022-11-24T14:44:28;79.47;;;20.35;;
76196;SDS011;64974;53.144;17.962;2022-11-24T14:49:54;67.45;;;20.58;;
76196;SDS011;64974;53.144;17.962;2022-11-24T14:52:20;65.88;;;20.38;;
76196;SDS011;64974;53.144;17.962;2022-11-24T14:54:47;60.60;;;17.08;;
76196;SDS011;64974;53.144;17.962;2022-11-24T14:57:36;68.72;;;19.58;;
76196;SDS011;64974;53.144;17.962;2022-11-24T15:00:06;55.67;;;17.77;;
76196;SDS011;64974;53.144;17.962;2022-11-24T15:02:52;58.88;;;17.58;;
76196;SDS011;64974;53.144;17.962;2022-11-24T15:05:18;57.83;;;18.80;;
76196;SDS011;64974;53.144;17.962;2022-11-24T15:07:46;69.63;;;20.00;;
76196;SDS011;64974;53.144;17.962;2022-11-24T15:10:54;69.90;;;21.35;;
76196;SDS011;64974;53.144;17.962;2022-11-24T15:13:05;64.55;;;19.80;;
76196;SDS011;64974;53.144;17.962;2022-11-24T15:15:39;77.57;;;20.55;;
76196;SDS011;64974;53.144;17.962;2022-11-24T15:18:24;67.20;;;20.27;;
76196;SDS011;64974;53.144;17.962;2022-11-24T15:20:51;70.10;;;20.92;;
76196;SDS011;64974;53.144;17.962;2022-11-24T15:23:24;67.95;;;20.83;;
76196;SDS011;64974;53.144;17.962;2022-11-24T15:25:54;69.18;;;20.58;;
76196;SDS011;64974;53.144;17.962;2022-11-24T15:28:20;58.22;;;18.88;;
76196;SDS011;64974;53.144;17.962;2022-11-24T15:30:50;61.92;;;19.70;;
76196;SDS011;64974;53.144;17.962;2022-11-24T15:33:19;61.45;;;17.83;;
76196;SDS011;64974;53.144;17.962;2022-11-24T15:35:46;61.40;;;18.63;;
76196;SDS011;64974;53.144;17.962;2022-11-24T15:38:11;59.92;;;18.48;;
76196;SDS011;64974;53.144;17.962;2022-11-24T15:40:37;58.08;;;17.70;;
76196;SDS011;64974;53.144;17.962;2022-11-24T15:46:04;58.97;;;17.65;;
76196;SDS011;64974;53.144;17.962;2022-11-24T15:48:30;53.97;;;18.25;;
76196;SDS011;64974;53.144;17.962;2022-11-24T15:50:56;61.55;;;16.58;;
76196;SDS011;64974;53.144;17.962;2022-11-24T15:56:02;54.20;;;18.10;;
76196;SDS011;64974;53.144;17.962;2022-11-24T15:58:30;53.97;;;16.92;;
76196;SDS011;64974;53.144;17.962;2022-11-24T16:00:56;54.25;;;16.88;;
76196;SDS011;64974;53.144;17.962;2022-11-24T16:03:21;59.67;;;18.65;;
76196;SDS011;64974;53.144;17.962;2022-11-24T16:05:47;58.20;;;15.93;;
76196;SDS011;64974;53.144;17.962;2022-11-24T16:08:13;50.15;;;16.10;;
76196;SDS011;64974;53.144;17.962;2022-11-24T16:10:40;59.30;;;15.63;;
76196;SDS011;64974;53.144;17.962;2022-11-24T16:13:06;56.17;;;17.52;;
76196;SDS011;64974;53.144;17.962;2022-11-24T16:15:31;61.15;;;17.25;;
76196;SDS011;64974;53.144;17.962;2022-11-24T16:17:57;61.30;;;19.58;;
76196;SDS011;64974;53.144;17.962;2022-11-24T16:20:22;68.40;;;19.23;;
76196;SDS011;64974;53.144;17.962;2022-11-24T16:22:47;69.85;;;21.10;;
76196;SDS011;64974;53.144;17.962;2022-11-24T16:25:13;54.97;;;18.02;;
76196;SDS011;64974;53.144;17.962;2022-11-24T16:27:38;71.10;;;19.60;;
76196;SDS011;64974;53.144;17.962;2022-11-24T16:30:04;52.58;;;16.95;;
76196;SDS011;64974;53.144;17.962;2022-11-24T16:32:30;66.43;;;17.92;;
76196;SDS011;64974;53.144;17.962;2022-11-24T16:34:55;67.43;;;18.35;;
76196;SDS011;64974;53.144;17.962;2022-11-24T16:37:21;78.90;;;21.80;;
76196;SDS011;64974;53.144;17.962;2022-11-24T16:39:47;117.05;;;36.80;;
76196;SDS011;64974;53.144;17.962;2022-11-24T16:42:12;80.28;;;21.08;;
76196;SDS011;64974;53.144;17.962;2022-11-24T16:44:38;64.72;;;20.70;;
76196;SDS011;64974;53.144;17.962;2022-11-24T16:47:03;56.60;;;16.70;;
76196;SDS011;64974;53.144;17.962;2022-11-24T16:49:28;68.38;;;17.20;;
76196;SDS011;64974;53.144;17.962;2022-11-24T16:51:56;70.32;;;20.48;;
76196;SDS011;64974;53.144;17.962;2022-11-24T16:54:22;123.18;;;36.90;;
76196;SDS011;64974;53.144;17.962;2022-11-24T16:56:47;75.13;;;23.35;;
76196;SDS011;64974;53.144;17.962;2022-11-24T16:59:13;82.38;;;31.92;;
76196;SDS011;64974;53.144;17.962;2022-11-24T17:01:38;72.18;;;22.80;;
76196;SDS011;64974;53.144;17.962;2022-11-24T17:04:07;89.32;;;27.00;;
76196;SDS011;64974;53.144;17.962;2022-11-24T17:06:32;104.15;;;30.05;;
76196;SDS011;64974;53.144;17.962;2022-11-24T17:08:58;78.05;;;23.83;;
76196;SDS011;64974;53.144;17.962;2022-11-24T17:11:24;56.38;;;19.33;;
76196;SDS011;64974;53.144;17.962;2022-11-24T17:13:51;61.42;;;17.98;;
76196;SDS011;64974;53.144;17.962;2022-11-24T17:16:17;73.53;;;20.35;;
76196;SDS011;64974;53.144;17.962;2022-11-24T17:18:43;53.22;;;16.00;;
76196;SDS011;64974;53.144;17.962;2022-11-24T17:21:13;59.45;;;18.10;;
76196;SDS011;64974;53.144;17.962;2022-11-24T17:23:39;63.58;;;20.25;;
76196;SDS011;64974;53.144;17.962;2022-11-24T17:26:05;57.03;;;18.65;;
76196;SDS011;64974;53.144;17.962;2022-11-24T17:28:33;45.80;;;15.23;;
76196;SDS011;64974;53.144;17.962;2022-11-24T17:31:04;52.83;;;14.63;;
76196;SDS011;64974;53.144;17.962;2022-11-24T17:33:39;51.60;;;16.63;;
76196;SDS011;64974;53.144;17.962;2022-11-24T17:36:05;54.30;;;15.85;;
76196;SDS011;64974;53.144;17.962;2022-11-24T17:38:30;58.10;;;18.02;;
76196;SDS011;64974;53.144;17.962;2022-11-24T17:40:56;56.30;;;17.77;;
76196;SDS011;64974;53.144;17.962;2022-11-24T17:43:22;61.60;;;16.85;;
76196;SDS011;64974;53.144;17.962;2022-11-24T17:45:57;61.75;;;17.45;;
76196;SDS011;64974;53.144;17.962;2022-11-24T17:48:24;64.13;;;18.38;;
76196;SDS011;64974;53.144;17.962;2022-11-24T17:51:04;59.10;;;17.38;;
76196;SDS011;64974;53.144;17.962;2022-11-24T17:53:37;65.32;;;22.08;;
76196;SDS011;64974;53.144;17.962;2022-11-24T17:56:03;64.65;;;22.05;;
76196;SDS011;64974;53.144;17.962;2022-11-24T17:58:31;69.35;;;19.10;;
76196;SDS011;64974;53.144;17.962;2022-11-24T18:00:57;61.42;;;19.27;;
76196;SDS011;64974;53.144;17.962;2022-11-24T18:03:23;52.05;;;17.40;;
76196;SDS011;64974;53.144;17.962;2022-11-24T18:05:52;67.65;;;17.48;;
76196;SDS011;64974;53.144;17.962;2022-11-24T18:08:18;71.75;;;20.92;;
76196;SDS011;64974;53.144;17.962;2022-11-24T18:10:43;66.30;;;18.20;;
76196;SDS011;64974;53.144;17.962;2022-11-24T18:13:08;72.18;;;22.52;;
76196;SDS011;64974;53.144;17.962;2022-11-24T18:15:34;87.32;;;28.02;;
76196;SDS011;64974;53.144;17.962;2022-11-24T18:18:00;68.72;;;21.35;;
76196;SDS011;64974;53.144;17.962;2022-11-24T18:20:27;76.65;;;24.83;;
76196;SDS011;64974;53.144;17.962;2022-11-24T18:22:53;80.05;;;28.88;;
76196;SDS011;64974;53.144;17.962;2022-11-24T18:25:20;77.78;;;24.33;;
76196;SDS011;64974;53.144;17.962;2022-11-24T18:27:45;68.63;;;20.02;;
76196;SDS011;64974;53.144;17.962;2022-11-24T18:30:11;76.65;;;23.98;;
76196;SDS011;64974;53.144;17.962;2022-11-24T18:32:36;68.53;;;19.75;;
76196;SDS011;64974;53.144;17.962;2022-11-24T18:35:02;69.43;;;22.08;;
76196;SDS011;64974;53.144;17.962;2022-11-24T18:37:30;74.55;;;20.50;;
76196;SDS011;64974;53.144;17.962;2022-11-24T18:39:57;71.07;;;21.75;;
76196;SDS011;64974;53.144;17.962;2022-11-24T18:42:23;76.57;;;21.10;;
76196;SDS011;64974;53.144;17.962;2022-11-24T18:44:49;73.65;;;21.60;;
76196;SDS011;64974;53.144;17.962;2022-11-24T18:47:15;74.50;;;24.40;;
76196;SDS011;64974;53.144;17.962;2022-11-24T18:49:41;83.95;;;24.30;;
76196;SDS011;64974;53.144;17.962;2022-11-24T18:52:06;130.43;;;42.92;;
76196;SDS011;64974;53.144;17.962;2022-11-24T18:54:31;130.27;;;35.30;;
76196;SDS011;64974;53.144;17.962;2022-11-24T18:56:57;85.00;;;23.98;;
76196;SDS011;64974;53.144;17.962;2022-11-24T18:59:23;91.95;;;23.77;;
76196;SDS011;64974;53.144;17.962;2022-11-24T19:01:48;80.00;;;22.05;;
76196;SDS011;64974;53.144;17.962;2022-11-24T19:04:14;80.13;;;23.95;;
76196;SDS011;64974;53.144;17.962;2022-11-24T19:06:39;86.82;;;22.08;;
76196;SDS011;64974;53.144;17.962;2022-11-24T19:09:06;77.70;;;21.98;;
76196;SDS011;64974;53.144;17.962;2022-11-24T19:11:33;86.20;;;22.73;;
76196;SDS011;64974;53.144;17.962;2022-11-24T19:14:02;76.30;;;22.85;;
76196;SDS011;64974;53.144;17.962;2022-11-24T19:16:28;86.93;;;22.20;;
76196;SDS011;64974;53.144;17.962;2022-11-24T19:18:54;86.55;;;22.08;;
76196;SDS011;64974;53.144;17.962;2022-11-24T19:21:24;85.60;;;23.60;;
76196;SDS011;64974;53.144;17.962;2022-11-24T19:23:50;86.20;;;23.42;;
76196;SDS011;64974;53.144;17.962;2022-11-24T19:26:16;88.90;;;25.00;;
76196;SDS011;64974;53.144;17.962;2022-11-24T19:28:41;94.38;;;28.40;;
76196;SDS011;64974;53.144;17.962;2022-11-24T19:31:08;134.50;;;38.90;;
76196;SDS011;64974;53.144;17.962;2022-11-24T19:33:38;145.00;;;39.00;;
76196;SDS011;64974;53.144;17.962;2022-11-24T19:36:04;152.20;;;45.28;;
76196;SDS011;64974;53.144;17.962;2022-11-24T19:38:32;109.88;;;31.80;;
76196;SDS011;64974;53.144;17.962;2022-11-24T19:40:59;90.70;;;28.40;;
76196;SDS011;64974;53.144;17.962;2022-11-24T19:43:26;89.07;;;24.23;;